Time;durP1;ratioP1;P1;durP2;ratioP2;P2;SDS_P1;SDS_P2;PMS_P1;PMS_P2;Temp;Humidity;BMP_temperature;BMP_pressure;BME280_temperature;BME280_humidity;BME280_pressure;Samples;Min_cycle;Max_cycle;Signal;HPM_P1;HPM_P2
2023/04/21 02:16:19;;;;;;;;;;;;;;;7.27;81.70;99536.69;1087515;46;19947;-77
2023/04/21 02:19:34;;;;;;;;;;;;;;;7.28;81.11;99538.38;1087182;54;19931;-77
2023/04/21 02:20:54;;;;;;;;;;;;;;;7.29;81.40;99532.91;1087413;46;19964;-80
2023/04/21 02:22:07;;;;;;;;;;;;;;;7.30;81.11;99534.59;1085644;54;19943;-81
2023/04/21 02:23:24;;;;;;;;;;;;;;;7.33;81.12;99538.78;1083850;46;20011;-79
2023/04/21 02:26:04;;;;;;;;;;;;;;;7.31;81.06;99538.94;1083207;54;20616;-79
2023/04/21 02:27:23;;;;;;;;;;;;;;;7.30;80.98;99531.13;1083833;54;19953;-79
2023/04/21 02:28:56;;;;;;;;;;;;;;;7.11;81.93;99537.19;1084736;54;19947;-80
2023/04/21 02:30:00;;;;;;;;;;;;;;;6.97;82.77;99549.91;1085149;39;20417;-78
2023/04/21 02:31:01;;;;;;;;;;;;;;;6.85;83.50;99545.66;1083988;54;19957;-79
2023/04/21 02:32:05;;;;;;;;;;;;;;;6.76;84.04;99552.59;1084028;54;19951;-79
2023/04/21 02:33:06;;;;;;;;;;;;;;;6.66;84.47;99546.41;1084544;54;19946;-79
2023/04/21 02:34:10;;;;;;;;;;;;;;;6.60;84.41;99547.78;1084647;54;19950;-79
2023/04/21 02:35:11;;;;;;;;;;;;;;;6.54;84.81;99535.00;1083785;54;19947;-79
2023/04/21 02:36:17;;;;;;;;;;;;;;;6.55;85.32;99534.03;1084024;54;19947;-78
2023/04/21 02:37:18;;;;;;;;;;;;;;;6.53;84.85;99535.97;1084294;54;19972;-79
2023/04/21 02:38:22;;;;;;;;;;;;;;;6.53;84.61;99536.81;1084358;54;19953;-79
2023/04/21 02:39:23;;;;;;;;;;;;;;;6.53;84.60;99534.16;1084321;54;19981;-79
2023/04/21 02:40:27;;;;;;;;;;;;;;;6.52;84.72;99534.28;1084760;39;20437;-78
2023/04/21 02:41:29;;;;;;;;;;;;;;;6.49;84.65;99539.88;1084394;54;19950;-79
2023/04/21 02:42:34;;;;;;;;;;;;;;;6.42;85.47;99538.72;1084231;54;19970;-79
2023/04/21 02:43:35;;;;;;;;;;;;;;;6.37;85.56;99537.28;1084034;54;19950;-79
2023/04/21 02:44:41;;;;;;;;;;;;;;;6.37;85.24;99531.97;1083992;54;20822;-78
2023/04/21 02:45:42;;;;;;;;;;;;;;;6.35;85.58;99527.78;1084033;54;19946;-79
2023/04/21 02:46:46;;;;;;;;;;;;;;;6.36;85.82;99529.47;1084962;54;20006;-79
2023/04/21 02:47:47;;;;;;;;;;;;;;;6.35;86.07;99533.91;1085375;54;19946;-78
2023/04/21 02:48:51;;;;;;;;;;;;;;;6.29;85.95;99528.28;1084628;54;19950;-79
2023/04/21 02:49:52;;;;;;;;;;;;;;;6.22;86.06;99533.28;1084601;54;19953;-79
2023/04/21 02:50:56;;;;;;;;;;;;;;;6.19;86.39;99533.53;1084646;54;19946;-79
2023/04/21 02:52:00;;;;;;;;;;;;;;;6.15;86.53;99532.09;1084835;54;19951;-80
2023/04/21 02:53:04;;;;;;;;;;;;;;;6.16;86.34;99544.41;1084772;54;20007;-80
2023/04/21 02:54:05;;;;;;;;;;;;;;;6.12;86.56;99540.31;1085248;39;20177;-80
2023/04/21 02:55:09;;;;;;;;;;;;;;;6.14;86.35;99538.41;1084603;54;19971;-80
2023/04/21 02:56:10;;;;;;;;;;;;;;;6.13;86.05;99539.38;1084624;54;19975;-79
2023/04/21 02:57:14;;;;;;;;;;;;;;;6.18;86.38;99543.31;1084554;54;19951;-79
2023/04/21 02:58:15;;;;;;;;;;;;;;;6.26;85.77;99545.31;1084923;54;19947;-79
2023/04/21 02:59:19;;;;;;;;;;;;;;;6.28;85.20;99531.91;1085085;54;20034;-79
2023/04/21 03:00:20;;;;;;;;;;;;;;;6.25;85.21;99533.00;1085305;39;20525;-79
2023/04/21 03:01:24;;;;;;;;;;;;;;;6.26;85.38;99534.69;1084810;54;20006;-79
2023/04/21 03:02:25;;;;;;;;;;;;;;;6.30;85.13;99524.66;1084904;54;19981;-79
2023/04/21 03:03:29;;;;;;;;;;;;;;;6.38;84.81;99540.75;1084961;54;19962;-78
2023/04/21 03:04:31;;;;;;;;;;;;;;;6.43;84.11;99529.75;1084947;54;19958;-79
2023/04/21 03:05:35;;;;;;;;;;;;;;;6.48;84.20;99533.69;1085474;54;19957;-78
2023/04/21 03:06:36;;;;;;;;;;;;;;;6.54;83.68;99540.31;1084926;54;19950;-79
2023/04/21 03:07:46;;;;;;;;;;;;;;;6.58;83.70;99539.09;1084067;54;19955;-78
2023/04/21 03:08:47;;;;;;;;;;;;;;;6.61;83.12;99540.63;1083771;54;19978;-79
2023/04/21 03:09:50;;;;;;;;;;;;;;;6.53;83.14;99543.94;1083792;54;19969;-79
2023/04/21 03:10:51;;;;;;;;;;;;;;;6.40;84.25;99545.00;1084725;39;20652;-79
2023/04/21 03:11:55;;;;;;;;;;;;;;;6.33;84.75;99543.81;1084509;54;19962;-79
2023/04/21 03:12:56;;;;;;;;;;;;;;;6.26;84.78;99537.34;1085046;54;19947;-78
2023/04/21 03:14:00;;;;;;;;;;;;;;;6.22;85.22;99542.06;1085135;54;19974;-79
2023/04/21 03:15:01;;;;;;;;;;;;;;;6.20;84.79;99551.13;1084869;54;19950;-79
2023/04/21 03:16:05;;;;;;;;;;;;;;;6.17;84.90;99540.78;1085037;54;19958;-78
2023/04/21 03:17:21;;;;;;;;;;;;;;;6.12;85.35;99550.94;1084224;54;19951;-79
2023/04/21 03:18:28;;;;;;;;;;;;;;;6.06;85.56;99555.78;1084639;54;19958;-79
2023/04/21 03:19:29;;;;;;;;;;;;;;;6.02;85.74;99557.03;1084722;39;20390;-79
2023/04/21 03:20:34;;;;;;;;;;;;;;;6.01;86.04;99554.47;1085008;54;20533;-79
2023/04/21 03:21:35;;;;;;;;;;;;;;;5.95;86.08;99550.50;1085869;39;20433;-79
2023/04/21 03:22:43;;;;;;;;;;;;;;;5.94;86.48;99543.53;1085059;54;19951;-79
2023/04/21 03:23:44;;;;;;;;;;;;;;;5.96;86.23;99549.50;1085176;54;19955;-80
2023/04/21 03:24:49;;;;;;;;;;;;;;;5.94;86.28;99540.88;1085328;54;20057;-79
2023/04/21 03:25:50;;;;;;;;;;;;;;;5.90;86.21;99544.72;1085090;54;19947;-78
2023/04/21 03:26:55;;;;;;;;;;;;;;;5.86;86.31;99540.63;1085370;54;19950;-79
2023/04/21 03:27:56;;;;;;;;;;;;;;;5.86;86.43;99543.28;1085539;54;20057;-79
2023/04/21 03:29:00;;;;;;;;;;;;;;;5.82;86.59;99536.56;1085266;54;19954;-79
2023/04/21 03:30:01;;;;;;;;;;;;;;;5.77;86.78;99539.59;1085426;54;19990;-78
2023/04/21 03:31:05;;;;;;;;;;;;;;;5.75;86.98;99542.38;1085331;54;19997;-79
2023/04/21 03:32:06;;;;;;;;;;;;;;;5.74;87.13;99538.03;1085233;54;19962;-80
2023/04/21 03:33:10;;;;;;;;;;;;;;;5.70;87.06;99547.22;1085567;54;20028;-79
2023/04/21 03:34:11;;;;;;;;;;;;;;;5.66;87.57;99536.97;1085454;54;19951;-79
2023/04/21 03:35:15;;;;;;;;;;;;;;;5.61;87.60;99543.53;1085516;54;19969;-79
2023/04/21 03:36:18;;;;;;;;;;;;;;;5.60;87.71;99540.97;1085466;54;19950;-77
2023/04/21 03:37:20;;;;;;;;;;;;;;;5.60;88.00;99539.19;1085554;54;19951;-79
2023/04/21 03:38:26;;;;;;;;;;;;;;;5.59;87.99;99536.63;1085558;54;19947;-78
2023/04/21 03:39:27;;;;;;;;;;;;;;;5.55;88.20;99546.66;1087194;54;19943;-79
2023/04/21 03:40:31;;;;;;;;;;;;;;;5.57;88.41;99538.59;1086668;39;20382;-80
2023/04/21 03:41:32;;;;;;;;;;;;;;;5.52;88.20;99540.75;1085933;54;19951;-79
2023/04/21 03:42:36;;;;;;;;;;;;;;;5.46;88.52;99542.09;1085833;54;19942;-77
2023/04/21 03:43:37;;;;;;;;;;;;;;;5.43;88.73;99537.88;1085825;54;19950;-79
2023/04/21 03:44:41;;;;;;;;;;;;;;;5.41;89.00;99537.16;1086147;54;19946;-79
2023/04/21 03:45:43;;;;;;;;;;;;;;;5.44;88.85;99544.03;1086317;46;19950;-79
2023/04/21 03:46:47;;;;;;;;;;;;;;;5.46;88.72;99539.44;1085978;54;19946;-78
2023/04/21 03:47:51;;;;;;;;;;;;;;;5.49;88.66;99541.00;1086394;54;19977;-79
2023/04/21 03:48:55;;;;;;;;;;;;;;;5.50;88.56;99532.06;1086006;54;19954;-79
2023/04/21 03:49:56;;;;;;;;;;;;;;;5.53;88.09;99531.84;1085492;54;20008;-78
2023/04/21 03:51:00;;;;;;;;;;;;;;;5.52;88.19;99528.34;1085613;54;19970;-79
2023/04/21 03:52:01;;;;;;;;;;;;;;;5.54;88.36;99544.13;1085381;54;19966;-78
2023/04/21 03:53:05;;;;;;;;;;;;;;;5.59;88.33;99533.97;1085659;54;20030;-80
2023/04/21 03:54:09;;;;;;;;;;;;;;;5.63;87.64;99532.78;1085298;54;19954;-80
2023/04/21 03:55:13;;;;;;;;;;;;;;;5.62;87.78;99528.44;1085286;54;19954;-78
2023/04/21 03:56:14;;;;;;;;;;;;;;;5.58;87.86;99535.81;1085420;54;19951;-78
2023/04/21 03:57:18;;;;;;;;;;;;;;;5.55;88.03;99536.03;1085132;54;20808;-78
2023/04/21 03:58:19;;;;;;;;;;;;;;;5.50;88.36;99524.97;1086005;31;20496;-78
2023/04/21 03:59:22;;;;;;;;;;;;;;;5.49;88.49;99531.25;1085432;54;20030;-79
2023/04/21 04:00:24;;;;;;;;;;;;;;;5.46;88.71;99537.66;1085369;54;19953;-80
2023/04/21 04:01:27;;;;;;;;;;;;;;;5.42;89.05;99536.19;1085309;54;19994;-79
2023/04/21 04:02:28;;;;;;;;;;;;;;;5.42;89.31;99541.50;1085089;54;19957;-78
2023/04/21 04:03:32;;;;;;;;;;;;;;;5.39;89.39;99539.09;1085580;54;19958;-79
2023/04/21 04:04:33;;;;;;;;;;;;;;;5.38;89.63;99537.44;1085267;54;19951;-78
2023/04/21 04:05:37;;;;;;;;;;;;;;;5.36;89.41;99543.81;1085135;54;19972;-79
2023/04/21 04:06:39;;;;;;;;;;;;;;;5.35;89.27;99542.97;1085450;54;19950;-79
2023/04/21 04:07:43;;;;;;;;;;;;;;;5.34;89.31;99546.59;1085507;46;19975;-78
2023/04/21 04:08:47;;;;;;;;;;;;;;;5.33;89.44;99544.91;1085298;54;19946;-78
2023/04/21 04:09:50;;;;;;;;;;;;;;;5.33;89.57;99542.25;1085678;54;19957;-78
2023/04/21 04:10:55;;;;;;;;;;;;;;;5.35;89.24;99534.16;1085545;54;20519;-77
2023/04/21 04:11:56;;;;;;;;;;;;;;;5.36;88.91;99534.06;1085445;54;19950;-79
2023/04/21 04:13:00;;;;;;;;;;;;;;;5.42;89.18;99530.91;1086273;39;20349;-78
2023/04/21 04:14:02;;;;;;;;;;;;;;;5.51;88.55;99523.16;1085983;54;19950;-79
2023/04/21 04:15:08;;;;;;;;;;;;;;;5.46;87.99;99534.13;1086040;54;19946;-78
2023/04/21 04:16:13;;;;;;;;;;;;;;;5.44;88.22;99525.47;1085849;54;20873;-80
2023/04/21 04:17:23;;;;;;;;;;;;;;;5.39;88.38;99532.97;1085347;54;20560;-78
2023/04/21 04:18:28;;;;;;;;;;;;;;;5.34;88.48;99532.50;1088104;31;20509;-79
2023/04/21 04:19:35;;;;;;;;;;;;;;;5.28;89.32;99531.19;1086081;54;19950;-78
2023/04/21 04:20:38;;;;;;;;;;;;;;;5.22;89.36;99534.31;1086227;54;19965;-80
2023/04/21 04:21:45;;;;;;;;;;;;;;;5.22;89.50;99529.88;1086093;54;19965;-79
2023/04/21 04:22:48;;;;;;;;;;;;;;;5.21;89.60;99528.19;1086503;54;19950;-79
2023/04/21 04:23:57;;;;;;;;;;;;;;;5.21;89.79;99535.28;1087160;46;19943;-79
2023/04/21 04:25:01;;;;;;;;;;;;;;;5.22;89.79;99529.88;1087169;46;20010;-80
2023/04/21 04:26:06;;;;;;;;;;;;;;;5.24;89.92;99542.97;1086870;54;20789;-78
2023/04/21 04:27:08;;;;;;;;;;;;;;;5.18;90.22;99532.88;1086481;54;19950;-80
2023/04/21 04:28:12;;;;;;;;;;;;;;;5.11;90.62;99537.81;1086972;54;19953;-80
2023/04/21 04:29:15;;;;;;;;;;;;;;;5.09;90.99;99550.34;1090360;39;20440;-78
2023/04/21 04:30:18;;;;;;;;;;;;;;;5.06;91.51;99547.94;1087636;46;19975;-78
2023/04/21 04:31:24;;;;;;;;;;;;;;;5.05;91.53;99543.63;1086922;54;19950;-78
2023/04/21 04:32:28;;;;;;;;;;;;;;;5.07;91.15;99542.53;1087870;46;19943;-79
2023/04/21 04:33:29;;;;;;;;;;;;;;;5.07;91.38;99541.66;1088118;46;19962;-80
2023/04/21 04:34:36;;;;;;;;;;;;;;;5.05;91.50;99535.66;1086999;54;19951;-78
2023/04/21 04:35:37;;;;;;;;;;;;;;;5.07;91.55;99531.94;1086817;54;19953;-78
2023/04/21 04:36:42;;;;;;;;;;;;;;;5.07;91.57;99536.38;1086634;54;19974;-79
2023/04/21 04:37:44;;;;;;;;;;;;;;;5.06;91.39;99535.53;1086612;54;19951;-79
2023/04/21 04:38:48;;;;;;;;;;;;;;;5.16;91.48;99546.22;1088964;31;20452;-81
2023/04/21 04:39:53;;;;;;;;;;;;;;;5.24;91.04;99542.97;1086712;54;19947;-81
2023/04/21 04:41:01;;;;;;;;;;;;;;;5.32;90.43;99545.84;1087061;46;19958;-80
2023/04/21 04:42:02;;;;;;;;;;;;;;;5.26;89.97;99549.84;1086524;54;19950;-79
2023/04/21 04:43:07;;;;;;;;;;;;;;;5.24;91.02;99550.94;1087630;39;20524;-80
2023/04/21 04:44:09;;;;;;;;;;;;;;;5.24;91.02;99542.97;1086692;54;19977;-78
2023/04/21 04:45:16;;;;;;;;;;;;;;;5.28;91.66;99547.09;1086951;54;20363;-77
2023/04/21 04:46:19;;;;;;;;;;;;;;;5.24;91.26;99553.59;1086916;54;19968;-80
2023/04/21 04:47:28;;;;;;;;;;;;;;;5.21;91.27;99551.16;1088068;46;19934;-81
2023/04/21 04:48:30;;;;;;;;;;;;;;;5.18;91.63;99543.47;1087260;54;20442;-82
2023/04/21 04:49:33;;;;;;;;;;;;;;;5.14;92.02;99542.88;1087144;46;19946;-80
2023/04/21 04:50:37;;;;;;;;;;;;;;;5.09;92.30;99543.25;1086156;54;19958;-80
2023/04/21 04:51:41;;;;;;;;;;;;;;;5.11;92.56;99543.94;1086351;54;19950;-79
2023/04/21 04:52:45;;;;;;;;;;;;;;;5.14;92.26;99549.00;1086645;54;19967;-81
2023/04/21 04:53:49;;;;;;;;;;;;;;;5.16;92.19;99543.59;1085539;54;19946;-79
2023/04/21 04:54:50;;;;;;;;;;;;;;;5.13;92.29;99541.19;1086024;54;19966;-79
2023/04/21 04:55:54;;;;;;;;;;;;;;;5.07;92.61;99542.53;1085862;54;19958;-79
2023/04/21 04:56:58;;;;;;;;;;;;;;;5.09;93.06;99551.22;1086294;54;19942;-79
2023/04/21 04:58:02;;;;;;;;;;;;;;;5.10;93.29;99547.56;1086208;54;19951;-79
2023/04/21 04:59:04;;;;;;;;;;;;;;;5.10;93.50;99552.03;1086088;54;20014;-79
2023/04/21 05:00:10;;;;;;;;;;;;;;;5.12;93.61;99550.94;1086166;54;20974;-79
2023/04/21 05:01:11;;;;;;;;;;;;;;;5.15;93.60;99553.34;1086226;54;19950;-79
2023/04/21 05:02:15;;;;;;;;;;;;;;;5.18;93.55;99560.22;1086223;54;19958;-79
2023/04/21 05:03:16;;;;;;;;;;;;;;;5.14;93.61;99550.84;1085802;54;19946;-79
2023/04/21 05:04:20;;;;;;;;;;;;;;;5.10;93.95;99554.69;1085722;39;20365;-80
2023/04/21 05:05:23;;;;;;;;;;;;;;;5.09;94.41;99561.81;1085659;54;20296;-79
2023/04/21 05:06:27;;;;;;;;;;;;;;;5.09;94.41;99558.28;1085609;54;19951;-79
2023/04/21 05:07:28;;;;;;;;;;;;;;;5.04;94.28;99563.13;1085562;54;19951;-78
2023/04/21 05:08:32;;;;;;;;;;;;;;;5.04;94.58;99569.25;1085332;54;19954;-79
2023/04/21 05:09:33;;;;;;;;;;;;;;;5.03;95.02;99572.03;1085849;54;19967;-79
2023/04/21 05:10:37;;;;;;;;;;;;;;;5.04;94.99;99571.06;1085606;54;19950;-78
2023/04/21 05:11:38;;;;;;;;;;;;;;;5.00;95.04;99573.13;1085940;54;19942;-80
2023/04/21 05:12:44;;;;;;;;;;;;;;;5.00;95.50;99566.00;1086822;39;20415;-79
2023/04/21 05:13:46;;;;;;;;;;;;;;;5.11;94.81;99569.63;1085747;54;19951;-78
2023/04/21 05:14:49;;;;;;;;;;;;;;;5.07;94.85;99573.47;1085620;54;20870;-79
2023/04/21 05:15:55;;;;;;;;;;;;;;;5.14;94.98;99572.88;1085641;54;19980;-78
2023/04/21 05:16:59;;;;;;;;;;;;;;;5.23;94.21;99567.78;1085519;54;20052;-78
2023/04/21 05:18:00;;;;;;;;;;;;;;;5.23;93.84;99571.31;1085368;54;20819;-78
2023/04/21 05:19:04;;;;;;;;;;;;;;;5.20;94.48;99568.03;1085749;54;19954;-78
2023/04/21 05:20:06;;;;;;;;;;;;;;;5.11;95.02;99575.75;1084748;46;19969;-79
2023/04/21 05:21:10;;;;;;;;;;;;;;;5.12;95.51;99579.25;1085460;54;19975;-79
2023/04/21 05:22:11;;;;;;;;;;;;;;;5.11;95.70;99581.03;1085725;39;20766;-78
2023/04/21 05:23:15;;;;;;;;;;;;;;;5.04;95.82;99585.16;1085460;54;19963;-79
2023/04/21 05:24:22;;;;;;;;;;;;;;;4.95;95.67;99580.56;1085500;54;19951;-78
2023/04/21 05:25:25;;;;;;;;;;;;;;;4.94;96.34;99586.84;1085262;54;19947;-79
2023/04/21 05:26:27;;;;;;;;;;;;;;;4.96;96.54;99588.41;1085301;54;19973;-78
2023/04/21 05:27:31;;;;;;;;;;;;;;;4.96;96.90;99584.91;1085434;54;19957;-78
2023/04/21 05:28:37;;;;;;;;;;;;;;;4.97;97.26;99584.78;1085496;54;19950;-78
2023/04/21 05:29:38;;;;;;;;;;;;;;;4.96;97.36;99587.56;1085556;54;19957;-79
2023/04/21 05:30:42;;;;;;;;;;;;;;;4.92;97.48;99589.63;1085483;54;19957;-79
2023/04/21 05:31:43;;;;;;;;;;;;;;;4.92;97.67;99580.81;1085331;54;19951;-78
2023/04/21 05:32:47;;;;;;;;;;;;;;;4.95;97.82;99591.16;1085673;54;19957;-79
2023/04/21 05:33:49;;;;;;;;;;;;;;;5.04;97.62;99587.81;1085347;54;19950;-79
2023/04/21 05:34:52;;;;;;;;;;;;;;;5.04;96.85;99587.81;1085271;54;19950;-79
2023/04/21 05:35:56;;;;;;;;;;;;;;;5.02;96.89;99596.84;1085338;54;20033;-80
2023/04/21 05:36:57;;;;;;;;;;;;;;;4.93;97.18;99598.38;1085013;54;19950;-78
2023/04/21 05:38:01;;;;;;;;;;;;;;;4.99;97.50;99608.53;1084953;54;19984;-78
2023/04/21 05:39:05;;;;;;;;;;;;;;;4.93;97.52;99601.91;1084950;54;20537;-78
2023/04/21 05:40:06;;;;;;;;;;;;;;;4.94;97.40;99600.09;1085372;54;19946;-77
2023/04/21 05:41:10;;;;;;;;;;;;;;;4.97;97.69;99597.19;1085446;39;20112;-77
2023/04/21 05:42:11;;;;;;;;;;;;;;;4.95;97.83;99599.13;1087003;39;20675;-78
2023/04/21 05:43:15;;;;;;;;;;;;;;;5.02;97.86;99592.38;1085116;54;19973;-78
2023/04/21 05:44:21;;;;;;;;;;;;;;;4.97;96.85;99597.19;1085372;54;19954;-77
2023/04/21 05:45:22;;;;;;;;;;;;;;;4.99;97.05;99604.06;1085212;54;19978;-77
2023/04/21 05:46:29;;;;;;;;;;;;;;;5.00;97.00;99602.28;1085300;54;19951;-78
2023/04/21 05:47:33;;;;;;;;;;;;;;;4.99;97.23;99608.53;1085400;54;19950;-77
2023/04/21 05:48:34;;;;;;;;;;;;;;;5.01;97.33;99601.28;1085579;39;20664;-77
2023/04/21 05:49:38;;;;;;;;;;;;;;;5.11;97.52;99604.91;1085614;54;20441;-78
2023/04/21 05:50:39;;;;;;;;;;;;;;;5.18;97.21;99596.47;1085190;54;19946;-78
2023/04/21 05:51:43;;;;;;;;;;;;;;;5.13;96.72;99602.97;1084020;54;19958;-78
2023/04/21 05:52:44;;;;;;;;;;;;;;;5.21;96.70;99602.38;1083612;54;19970;-77
2023/04/21 05:53:48;;;;;;;;;;;;;;;5.28;95.72;99602.75;1084013;54;19946;-77
2023/04/21 05:54:49;;;;;;;;;;;;;;;5.31;94.67;99602.47;1083886;54;19947;-78
2023/04/21 05:55:53;;;;;;;;;;;;;;;5.38;94.71;99595.75;1084123;54;19946;-76
2023/04/21 05:56:54;;;;;;;;;;;;;;;5.41;94.11;99592.00;1083979;54;19974;-78
2023/04/21 05:57:57;;;;;;;;;;;;;;;5.33;94.04;99589.97;1083785;54;19946;-77
2023/04/21 05:58:59;;;;;;;;;;;;;;;5.34;94.28;99596.94;1084006;54;19947;-77
2023/04/21 06:00:06;;;;;;;;;;;;;;;5.32;94.10;99612.13;1083807;54;20482;-77
2023/04/21 06:01:07;;;;;;;;;;;;;;;5.26;94.43;99604.66;1084447;39;20804;-77
2023/04/21 06:02:11;;;;;;;;;;;;;;;5.22;94.89;99609.38;1083800;54;20720;-77
2023/04/21 06:03:12;;;;;;;;;;;;;;;5.19;95.71;99604.31;1083972;54;19946;-77
2023/04/21 06:04:16;;;;;;;;;;;;;;;5.13;95.58;99604.78;1084042;54;19975;-77
2023/04/21 06:05:17;;;;;;;;;;;;;;;5.20;95.44;99602.47;1084134;54;19969;-77
2023/04/21 06:06:21;;;;;;;;;;;;;;;5.25;95.46;99606.47;1083906;54;19951;-77
2023/04/21 06:07:25;;;;;;;;;;;;;;;5.30;95.03;99595.50;1083864;54;19946;-77
2023/04/21 06:08:26;;;;;;;;;;;;;;;5.35;95.04;99596.00;1084003;54;19970;-77
2023/04/21 06:09:30;;;;;;;;;;;;;;;5.41;94.53;99603.44;1083935;54;19970;-77
2023/04/21 06:10:31;;;;;;;;;;;;;;;5.38;93.82;99611.66;1084031;54;19985;-77
2023/04/21 06:11:35;;;;;;;;;;;;;;;5.30;93.35;99612.25;1083999;54;19973;-78
2023/04/21 06:12:36;;;;;;;;;;;;;;;5.26;93.77;99613.44;1084009;54;20018;-77
2023/04/21 06:13:39;;;;;;;;;;;;;;;5.21;93.87;99612.13;1084139;54;19947;-79
2023/04/21 06:14:43;;;;;;;;;;;;;;;5.23;93.67;99610.19;1084346;54;20925;-77
2023/04/21 06:15:47;;;;;;;;;;;;;;;5.26;93.58;99613.44;1084240;54;20206;-77
2023/04/21 06:16:51;;;;;;;;;;;;;;;5.22;93.32;99605.88;1085481;39;20431;-79
2023/04/21 06:17:52;;;;;;;;;;;;;;;5.27;93.42;99606.34;1085060;54;19949;-77
2023/04/21 06:18:57;;;;;;;;;;;;;;;5.40;93.99;99601.75;1085429;54;20450;-77
2023/04/21 06:19:58;;;;;;;;;;;;;;;5.46;93.13;99608.38;1084251;54;19957;-79
2023/04/21 06:21:02;;;;;;;;;;;;;;;5.44;92.42;99605.84;1083353;54;19947;-78
2023/04/21 06:22:03;;;;;;;;;;;;;;;5.43;92.51;99601.50;1085112;31;20458;-77
2023/04/21 06:23:08;;;;;;;;;;;;;;;5.49;92.36;99610.78;1084143;54;20426;-80
2023/04/21 06:24:09;;;;;;;;;;;;;;;5.43;92.27;99601.50;1084120;47;19946;-77
2023/04/21 06:25:13;;;;;;;;;;;;;;;5.31;92.37;99589.22;1084234;54;20450;-77
2023/04/21 06:26:14;;;;;;;;;;;;;;;5.27;93.47;99590.47;1083909;54;20517;-77
2023/04/21 06:27:17;;;;;;;;;;;;;;;5.25;93.15;99589.72;1083974;54;20020;-77
2023/04/21 06:28:18;;;;;;;;;;;;;;;5.27;93.82;99582.50;1084209;54;19990;-77
2023/04/21 06:29:22;;;;;;;;;;;;;;;5.29;93.71;99588.53;1084140;54;20059;-79
2023/04/21 06:30:23;;;;;;;;;;;;;;;5.38;94.01;99585.16;1084128;54;19955;-77
2023/04/21 06:31:30;;;;;;;;;;;;;;;5.28;93.19;99586.84;1083834;54;19946;-77
2023/04/21 06:32:31;;;;;;;;;;;;;;;5.25;93.37;99581.78;1084464;39;20330;-77
2023/04/21 06:33:35;;;;;;;;;;;;;;;5.27;93.01;99585.97;1084154;54;19974;-78
2023/04/21 06:34:36;;;;;;;;;;;;;;;5.30;93.07;99587.53;1084618;39;20476;-77
2023/04/21 06:35:40;;;;;;;;;;;;;;;5.42;93.24;99585.75;1083967;54;19954;-78
2023/04/21 06:36:41;;;;;;;;;;;;;;;5.46;92.35;99587.16;1084173;54;19950;-78
2023/04/21 06:37:45;;;;;;;;;;;;;;;5.44;92.69;99586.44;1084677;39;20439;-78
2023/04/21 06:38:46;;;;;;;;;;;;;;;5.39;93.07;99586.81;1084548;39;20446;-77
2023/04/21 06:39:50;;;;;;;;;;;;;;;5.38;93.15;99592.25;1083658;54;19999;-78
2023/04/21 06:40:51;;;;;;;;;;;;;;;5.38;93.15;99589.59;1083917;54;19950;-77
2023/04/21 06:41:56;;;;;;;;;;;;;;;5.41;93.43;99600.78;1083889;54;19950;-78
2023/04/21 06:42:57;;;;;;;;;;;;;;;5.45;92.95;99601.38;1083762;54;19951;-77
2023/04/21 06:44:01;;;;;;;;;;;;;;;5.52;93.05;99588.47;1084712;54;19982;-78
2023/04/21 06:45:02;;;;;;;;;;;;;;;5.60;92.48;99596.66;1085244;39;20679;-77
2023/04/21 06:46:06;;;;;;;;;;;;;;;5.77;92.74;99590.00;1084808;54;20063;-77
2023/04/21 06:47:10;;;;;;;;;;;;;;;5.78;91.10;99584.56;1084785;54;19954;-77
2023/04/21 06:48:14;;;;;;;;;;;;;;;5.80;90.42;99586.25;1084902;54;19946;-77
2023/04/21 06:49:17;;;;;;;;;;;;;;;5.78;90.49;99581.91;1084828;54;20496;-77
2023/04/21 06:50:18;;;;;;;;;;;;;;;5.82;90.47;99579.00;1085095;54;19973;-78
2023/04/21 06:51:22;;;;;;;;;;;;;;;5.84;90.10;99583.22;1085007;54;19958;-77
2023/04/21 06:52:23;;;;;;;;;;;;;;;5.94;90.64;99586.81;1085606;54;19973;-78
2023/04/21 06:53:28;;;;;;;;;;;;;;;6.04;90.41;99592.25;1086404;54;19950;-77
2023/04/21 06:54:29;;;;;;;;;;;;;;;6.10;89.49;99596.16;1087448;54;19949;-77
2023/04/21 06:55:33;;;;;;;;;;;;;;;6.15;88.99;99587.81;1087356;54;19991;-77
2023/04/21 06:56:34;;;;;;;;;;;;;;;6.13;87.65;99589.78;1087615;47;19952;-77
2023/04/21 06:57:37;;;;;;;;;;;;;;;6.18;88.43;99584.94;1087422;47;19983;-77
2023/04/21 06:58:38;;;;;;;;;;;;;;;6.25;88.47;99586.09;1087152;54;19943;-77
2023/04/21 06:59:42;;;;;;;;;;;;;;;6.26;87.21;99581.63;1087437;47;19939;-78
2023/04/21 07:00:43;;;;;;;;;;;;;;;6.34;88.01;99590.63;1086020;54;19947;-78
2023/04/21 07:01:47;;;;;;;;;;;;;;;6.43;88.13;99593.47;1085356;54;20059;-78
2023/04/21 07:02:54;;;;;;;;;;;;;;;6.49;87.30;99588.50;1085818;54;20536;-77
2023/04/21 07:03:55;;;;;;;;;;;;;;;6.56;87.22;99594.13;1085755;54;20263;-77
2023/04/21 07:04:58;;;;;;;;;;;;;;;6.63;86.98;99605.09;1086100;54;19942;-77
2023/04/21 07:06:00;;;;;;;;;;;;;;;6.67;86.44;99599.38;1085539;54;20293;-78
2023/04/21 07:07:03;;;;;;;;;;;;;;;6.71;86.18;99600.78;1085794;54;19950;-77
2023/04/21 07:08:05;;;;;;;;;;;;;;;6.75;85.75;99600.53;1085598;54;19990;-77
2023/04/21 07:09:08;;;;;;;;;;;;;;;6.77;85.11;99596.78;1085971;47;19939;-77
2023/04/21 07:10:10;;;;;;;;;;;;;;;6.86;85.58;99593.31;1086007;54;19977;-77
2023/04/21 07:11:13;;;;;;;;;;;;;;;6.92;85.13;99584.00;1086033;54;19951;-77
2023/04/21 07:12:14;;;;;;;;;;;;;;;6.98;84.93;99588.78;1086019;54;20857;-77
2023/04/21 07:13:18;;;;;;;;;;;;;;;7.03;84.31;99581.25;1085919;47;19996;-77
2023/04/21 07:14:22;;;;;;;;;;;;;;;7.13;84.29;99580.44;1086085;54;19957;-78
2023/04/21 07:15:23;;;;;;;;;;;;;;;7.05;82.13;99582.94;1086212;54;19954;-77
2023/04/21 07:16:26;;;;;;;;;;;;;;;6.97;82.40;99589.75;1085977;54;19942;-77
2023/04/21 07:17:28;;;;;;;;;;;;;;;6.98;83.57;99587.94;1085867;54;19963;-78
2023/04/21 07:18:34;;;;;;;;;;;;;;;7.03;83.18;99589.22;1086005;54;19950;-77
2023/04/21 07:19:38;;;;;;;;;;;;;;;7.09;83.30;99594.97;1085709;54;19996;-77
2023/04/21 07:20:39;;;;;;;;;;;;;;;7.19;83.94;99590.53;1086066;54;19972;-77
2023/04/21 07:21:43;;;;;;;;;;;;;;;7.28;83.83;99580.91;1085223;54;19977;-77
2023/04/21 07:22:44;;;;;;;;;;;;;;;7.37;83.28;99579.28;1086022;54;19951;-76
2023/04/21 07:23:48;;;;;;;;;;;;;;;7.43;82.49;99570.75;1086228;54;19942;-77
2023/04/21 07:24:49;;;;;;;;;;;;;;;7.45;82.07;99568.81;1086347;47;19957;-77
2023/04/21 07:25:53;;;;;;;;;;;;;;;7.43;81.63;99568.09;1085782;54;19958;-77
2023/04/21 07:26:54;;;;;;;;;;;;;;;7.42;81.48;99563.75;1085975;54;19946;-77
2023/04/21 07:27:58;;;;;;;;;;;;;;;7.51;82.00;99562.94;1086082;54;20919;-77
2023/04/21 07:29:01;;;;;;;;;;;;;;;7.58;82.00;99566.72;1087390;39;20467;-77
2023/04/21 07:30:03;;;;;;;;;;;;;;;7.62;81.21;99560.16;1086210;47;19954;-78
2023/04/21 07:31:07;;;;;;;;;;;;;;;7.67;81.52;99559.75;1086220;54;19954;-77
2023/04/21 07:32:08;;;;;;;;;;;;;;;7.73;81.01;99550.38;1085939;54;19942;-76
2023/04/21 07:33:12;;;;;;;;;;;;;;;7.67;79.52;99556.22;1085911;54;19951;-77
2023/04/21 07:34:15;;;;;;;;;;;;;;;7.59;79.33;99559.59;1085921;47;19969;-77
2023/04/21 07:35:19;;;;;;;;;;;;;;;7.63;80.38;99556.53;1085905;54;19951;-76
2023/04/21 07:36:20;;;;;;;;;;;;;;;7.71;80.79;99557.63;1086035;54;19953;-80
2023/04/21 07:37:25;;;;;;;;;;;;;;;7.80;80.65;99548.81;1085585;54;19950;-80
2023/04/21 07:38:27;;;;;;;;;;;;;;;7.80;80.02;99551.50;1085876;54;19950;-78
2023/04/21 07:39:30;;;;;;;;;;;;;;;7.86;80.32;99553.59;1085703;54;19977;-79
2023/04/21 07:40:31;;;;;;;;;;;;;;;7.89;79.85;99550.66;1085756;54;19950;-79
2023/04/21 07:41:35;;;;;;;;;;;;;;;7.87;79.90;99551.78;1086297;54;19959;-76
2023/04/21 07:42:36;;;;;;;;;;;;;;;7.92;79.38;99544.19;1086568;54;19950;-78
2023/04/21 07:43:40;;;;;;;;;;;;;;;7.95;78.77;99549.25;1086472;54;19957;-79
2023/04/21 07:44:41;;;;;;;;;;;;;;;7.93;78.60;99545.88;1088178;39;20179;-78
2023/04/21 07:45:45;;;;;;;;;;;;;;;7.97;79.36;99545.47;1086484;54;19994;-80
2023/04/21 07:46:48;;;;;;;;;;;;;;;8.04;79.55;99548.41;1086646;54;19966;-80
2023/04/21 07:47:52;;;;;;;;;;;;;;;8.07;79.32;99541.97;1086753;47;19977;-79
2023/04/21 07:48:56;;;;;;;;;;;;;;;8.10;78.99;99544.34;1086575;54;19947;-80
2023/04/21 07:50:02;;;;;;;;;;;;;;;8.16;79.08;99545.59;1087305;47;19961;-78
2023/04/21 07:51:03;;;;;;;;;;;;;;;8.21;78.76;99552.19;1087638;39;20364;-79
2023/04/21 07:52:07;;;;;;;;;;;;;;;8.21;78.64;99544.22;1086290;54;19943;-78
2023/04/21 07:53:08;;;;;;;;;;;;;;;8.22;78.63;99543.19;1086191;54;20046;-78
2023/04/21 07:54:12;;;;;;;;;;;;;;;8.23;78.33;99534.22;1086459;54;19946;-76